sensor_id;sensor_type;location;lat;lon;timestamp;pressure;altitude;pressure_sealevel;temperature;humidity
54038;BME280;39954;48.844;9.726;2022-12-29T00:00:55;95656.72;;;5.35;100.00
54038;BME280;39954;48.844;9.726;2022-12-29T00:01:57;95659.34;;;5.34;100.00
54038;BME280;39954;48.844;9.726;2022-12-29T00:03:02;95656.91;;;5.31;100.00
54038;BME280;39954;48.844;9.726;2022-12-29T00:04:04;95667.31;;;5.29;100.00
54038;BME280;39954;48.844;9.726;2022-12-29T00:05:15;95662.91;;;5.31;100.00
54038;BME280;39954;48.844;9.726;2022-12-29T00:06:17;95660.06;;;5.37;100.00
54038;BME280;39954;48.844;9.726;2022-12-29T00:07:21;95662.56;;;5.39;100.00
54038;BME280;39954;48.844;9.726;2022-12-29T00:08:26;95664.06;;;5.45;100.00
54038;BME280;39954;48.844;9.726;2022-12-29T00:09:44;95664.88;;;5.45;100.00
54038;BME280;39954;48.844;9.726;2022-12-29T00:10:49;95664.19;;;5.42;100.00
54038;BME280;39954;48.844;9.726;2022-12-29T00:11:51;95663.50;;;5.38;100.00
54038;BME280;39954;48.844;9.726;2022-12-29T00:12:55;95664.06;;;5.45;100.00
54038;BME280;39954;48.844;9.726;2022-12-29T00:14:13;95666.31;;;5.52;100.00
54038;BME280;39954;48.844;9.726;2022-12-29T00:15:30;95660.88;;;5.58;100.00
54038;BME280;39954;48.844;9.726;2022-12-29T00:16:42;95659.06;;;5.60;100.00
54038;BME280;39954;48.844;9.726;2022-12-29T00:17:47;95654.06;;;5.57;100.00
54038;BME280;39954;48.844;9.726;2022-12-29T00:18:49;95654.81;;;5.59;100.00
54038;BME280;39954;48.844;9.726;2022-12-29T00:19:54;95651.47;;;5.57;100.00
54038;BME280;39954;48.844;9.726;2022-12-29T00:21:13;95648.03;;;5.57;100.00
54038;BME280;39954;48.844;9.726;2022-12-29T00:22:31;95647.72;;;5.65;100.00
54038;BME280;39954;48.844;9.726;2022-12-29T00:23:48;95647.50;;;5.69;100.00
54038;BME280;39954;48.844;9.726;2022-12-29T00:25:09;95643.47;;;5.64;100.00
54038;BME280;39954;48.844;9.726;2022-12-29T00:26:32;95644.34;;;5.63;100.00
54038;BME280;39954;48.844;9.726;2022-12-29T00:27:49;95643.31;;;5.67;100.00
54038;BME280;39954;48.844;9.726;2022-12-29T00:29:08;95634.81;;;5.65;100.00
54038;BME280;39954;48.844;9.726;2022-12-29T00:30:25;95644.16;;;5.67;100.00
54038;BME280;39954;48.844;9.726;2022-12-29T00:31:42;95641.25;;;5.75;100.00
54038;BME280;39954;48.844;9.726;2022-12-29T00:32:59;95642.84;;;5.77;100.00
54038;BME280;39954;48.844;9.726;2022-12-29T00:34:18;95640.00;;;5.83;100.00
54038;BME280;39954;48.844;9.726;2022-12-29T00:35:39;95633.09;;;5.84;100.00
54038;BME280;39954;48.844;9.726;2022-12-29T00:36:44;95631.97;;;5.90;100.00
54038;BME280;39954;48.844;9.726;2022-12-29T00:37:47;95623.94;;;5.97;100.00
54038;BME280;39954;48.844;9.726;2022-12-29T00:39:07;95629.84;;;5.99;100.00
54038;BME280;39954;48.844;9.726;2022-12-29T00:40:29;95629.09;;;5.97;100.00
54038;BME280;39954;48.844;9.726;2022-12-29T00:41:47;95623.25;;;5.92;100.00
54038;BME280;39954;48.844;9.726;2022-12-29T00:43:04;95625.66;;;5.97;100.00
54038;BME280;39954;48.844;9.726;2022-12-29T00:44:21;95619.66;;;5.96;100.00
54038;BME280;39954;48.844;9.726;2022-12-29T00:45:25;95622.19;;;5.98;100.00
54038;BME280;39954;48.844;9.726;2022-12-29T00:46:27;95626.41;;;5.99;100.00
54038;BME280;39954;48.844;9.726;2022-12-29T00:47:32;95617.94;;;5.97;100.00
54038;BME280;39954;48.844;9.726;2022-12-29T00:48:34;95613.47;;;6.00;100.00
54038;BME280;39954;48.844;9.726;2022-12-29T00:49:51;95615.59;;;6.10;100.00
54038;BME280;39954;48.844;9.726;2022-12-29T00:50:56;95613.66;;;6.15;100.00
54038;BME280;39954;48.844;9.726;2022-12-29T00:52:00;95607.44;;;6.19;100.00
54038;BME280;39954;48.844;9.726;2022-12-29T00:53:06;95613.34;;;6.21;100.00
54038;BME280;39954;48.844;9.726;2022-12-29T00:54:08;95618.38;;;6.24;100.00
54038;BME280;39954;48.844;9.726;2022-12-29T00:55:13;95620.81;;;6.27;100.00
54038;BME280;39954;48.844;9.726;2022-12-29T00:56:17;95619.91;;;6.28;100.00
54038;BME280;39954;48.844;9.726;2022-12-29T00:57:22;95623.81;;;6.37;100.00
54038;BME280;39954;48.844;9.726;2022-12-29T00:58:27;95617.66;;;6.39;100.00
54038;BME280;39954;48.844;9.726;2022-12-29T00:59:29;95612.66;;;6.36;100.00
54038;BME280;39954;48.844;9.726;2022-12-29T01:00:34;95615.84;;;6.41;100.00
54038;BME280;39954;48.844;9.726;2022-12-29T01:01:37;95618.44;;;6.41;100.00
54038;BME280;39954;48.844;9.726;2022-12-29T01:02:42;95616.69;;;6.42;100.00
54038;BME280;39954;48.844;9.726;2022-12-29T01:03:44;95614.16;;;6.40;100.00
54038;BME280;39954;48.844;9.726;2022-12-29T01:04:49;95612.50;;;6.39;100.00
54038;BME280;39954;48.844;9.726;2022-12-29T01:05:53;95618.34;;;6.43;100.00
54038;BME280;39954;48.844;9.726;2022-12-29T01:06:55;95611.44;;;6.43;100.00
54038;BME280;39954;48.844;9.726;2022-12-29T01:08:00;95606.72;;;6.52;100.00
54038;BME280;39954;48.844;9.726;2022-12-29T01:09:02;95613.34;;;6.57;100.00
54038;BME280;39954;48.844;9.726;2022-12-29T01:10:19;95608.28;;;6.56;100.00
54038;BME280;39954;48.844;9.726;2022-12-29T01:11:26;95611.00;;;6.53;100.00
54038;BME280;39954;48.844;9.726;2022-12-29T01:12:28;95611.75;;;6.55;100.00
54038;BME280;39954;48.844;9.726;2022-12-29T01:13:51;95611.59;;;6.58;100.00
54038;BME280;39954;48.844;9.726;2022-12-29T01:14:56;95607.41;;;6.55;100.00
54038;BME280;39954;48.844;9.726;2022-12-29T01:15:58;95610.91;;;6.54;100.00
54038;BME280;39954;48.844;9.726;2022-12-29T01:17:03;95607.00;;;6.64;100.00
54038;BME280;39954;48.844;9.726;2022-12-29T01:18:05;95610.47;;;6.63;100.00
54038;BME280;39954;48.844;9.726;2022-12-29T01:19:10;95604.41;;;6.64;100.00
54038;BME280;39954;48.844;9.726;2022-12-29T01:20:13;95609.63;;;6.63;100.00
54038;BME280;39954;48.844;9.726;2022-12-29T01:21:18;95616.50;;;6.64;100.00
54038;BME280;39954;48.844;9.726;2022-12-29T01:22:20;95617.22;;;6.66;100.00
54038;BME280;39954;48.844;9.726;2022-12-29T01:23:25;95611.16;;;6.67;100.00
54038;BME280;39954;48.844;9.726;2022-12-29T01:24:27;95616.78;;;6.75;99.49
54038;BME280;39954;48.844;9.726;2022-12-29T01:25:32;95613.19;;;6.78;98.77
54038;BME280;39954;48.844;9.726;2022-12-29T01:26:36;95614.88;;;6.79;98.46
54038;BME280;39954;48.844;9.726;2022-12-29T01:27:41;95612.22;;;6.80;98.94
54038;BME280;39954;48.844;9.726;2022-12-29T01:28:43;95613.19;;;6.78;98.57
54038;BME280;39954;48.844;9.726;2022-12-29T01:29:48;95616.50;;;6.81;98.41
54038;BME280;39954;48.844;9.726;2022-12-29T01:30:50;95616.41;;;6.83;97.58
54038;BME280;39954;48.844;9.726;2022-12-29T01:31:54;95612.94;;;6.84;97.62
54038;BME280;39954;48.844;9.726;2022-12-29T01:32:56;95610.41;;;6.82;98.22
54038;BME280;39954;48.844;9.726;2022-12-29T01:34:01;95617.31;;;6.82;97.65
54038;BME280;39954;48.844;9.726;2022-12-29T01:35:04;95617.09;;;6.86;97.00
54038;BME280;39954;48.844;9.726;2022-12-29T01:36:11;95613.44;;;6.90;95.65
54038;BME280;39954;48.844;9.726;2022-12-29T01:37:14;95617.47;;;6.96;94.84
54038;BME280;39954;48.844;9.726;2022-12-29T01:38:19;95621.59;;;7.00;94.30
54038;BME280;39954;48.844;9.726;2022-12-29T01:39:21;95621.94;;;7.10;93.55
54038;BME280;39954;48.844;9.726;2022-12-29T01:40:25;95614.97;;;7.12;93.10
54038;BME280;39954;48.844;9.726;2022-12-29T01:41:28;95626.19;;;7.11;93.24
54038;BME280;39954;48.844;9.726;2022-12-29T01:42:35;95619.03;;;7.16;91.86
54038;BME280;39954;48.844;9.726;2022-12-29T01:43:40;95621.03;;;7.11;93.48
54038;BME280;39954;48.844;9.726;2022-12-29T01:44:50;95622.41;;;7.01;95.18
54038;BME280;39954;48.844;9.726;2022-12-29T01:45:54;95622.63;;;6.96;95.39
54038;BME280;39954;48.844;9.726;2022-12-29T01:46:59;95621.97;;;6.92;95.70
54038;BME280;39954;48.844;9.726;2022-12-29T01:48:03;95625.28;;;6.94;95.97
54038;BME280;39954;48.844;9.726;2022-12-29T01:49:12;95623.63;;;6.93;95.82
54038;BME280;39954;48.844;9.726;2022-12-29T01:50:20;95626.19;;;6.93;94.99
54038;BME280;39954;48.844;9.726;2022-12-29T01:51:27;95630.06;;;6.85;97.36
54038;BME280;39954;48.844;9.726;2022-12-29T01:52:34;95631.22;;;6.79;98.41
54038;BME280;39954;48.844;9.726;2022-12-29T01:53:39;95634.00;;;6.75;99.43
54038;BME280;39954;48.844;9.726;2022-12-29T01:54:43;95628.94;;;6.73;99.54
54038;BME280;39954;48.844;9.726;2022-12-29T01:55:54;95632.34;;;6.73;98.96
54038;BME280;39954;48.844;9.726;2022-12-29T01:57:01;95629.84;;;6.72;100.00
54038;BME280;39954;48.844;9.726;2022-12-29T01:58:10;95627.56;;;6.66;100.00
54038;BME280;39954;48.844;9.726;2022-12-29T01:59:17;95624.59;;;6.73;98.38
54038;BME280;39954;48.844;9.726;2022-12-29T02:00:24;95625.44;;;6.74;97.86
54038;BME280;39954;48.844;9.726;2022-12-29T02:01:26;95619.50;;;6.72;98.98
54038;BME280;39954;48.844;9.726;2022-12-29T02:02:31;95623.53;;;6.78;97.29
54038;BME280;39954;48.844;9.726;2022-12-29T02:03:34;95625.38;;;6.76;98.82
54038;BME280;39954;48.844;9.726;2022-12-29T02:04:41;95628.94;;;6.73;99.30
54038;BME280;39954;48.844;9.726;2022-12-29T02:05:48;95623.16;;;6.68;100.00
54038;BME280;39954;48.844;9.726;2022-12-29T02:06:57;95616.19;;;6.70;98.70
54038;BME280;39954;48.844;9.726;2022-12-29T02:08:01;95621.19;;;6.73;99.26
54038;BME280;39954;48.844;9.726;2022-12-29T02:09:06;95614.94;;;6.77;97.55
54038;BME280;39954;48.844;9.726;2022-12-29T02:10:08;95615.03;;;6.76;98.54
54038;BME280;39954;48.844;9.726;2022-12-29T02:11:12;95613.59;;;6.70;100.00
54038;BME280;39954;48.844;9.726;2022-12-29T02:12:16;95609.31;;;6.69;100.00
54038;BME280;39954;48.844;9.726;2022-12-29T02:13:23;95618.53;;;6.75;98.95
54038;BME280;39954;48.844;9.726;2022-12-29T02:14:25;95624.25;;;6.81;96.83
54038;BME280;39954;48.844;9.726;2022-12-29T02:15:35;95610.50;;;6.81;97.44
54038;BME280;39954;48.844;9.726;2022-12-29T02:16:52;95611.75;;;6.72;100.00
54038;BME280;39954;48.844;9.726;2022-12-29T02:18:13;95609.56;;;6.82;97.01
54038;BME280;39954;48.844;9.726;2022-12-29T02:19:53;95610.56;;;6.79;98.08
54038;BME280;39954;48.844;9.726;2022-12-29T02:22:48;95610.78;;;6.75;99.06
54038;BME280;39954;48.844;9.726;2022-12-29T02:24:15;95607.28;;;6.76;98.69
54038;BME280;39954;48.844;9.726;2022-12-29T02:25:37;95613.50;;;6.71;100.00
54038;BME280;39954;48.844;9.726;2022-12-29T02:26:58;95611.00;;;6.70;100.00
54038;BME280;39954;48.844;9.726;2022-12-29T02:28:43;95604.09;;;6.70;99.22
54038;BME280;39954;48.844;9.726;2022-12-29T02:30:04;95602.19;;;6.74;98.47
54038;BME280;39954;48.844;9.726;2022-12-29T02:31:17;95620.22;;;6.76;99.00
54038;BME280;39954;48.844;9.726;2022-12-29T02:32:29;95604.00;;;6.72;99.49
54038;BME280;39954;48.844;9.726;2022-12-29T02:33:41;95609.31;;;6.69;100.00
54038;BME280;39954;48.844;9.726;2022-12-29T02:35:00;95605.75;;;6.71;99.26
54038;BME280;39954;48.844;9.726;2022-12-29T02:36:11;95599.75;;;6.71;99.61
54038;BME280;39954;48.844;9.726;2022-12-29T02:37:26;95596.19;;;6.73;98.69
54038;BME280;39954;48.844;9.726;2022-12-29T02:38:45;95594.53;;;6.72;98.17
54038;BME280;39954;48.844;9.726;2022-12-29T02:39:59;95600.53;;;6.73;98.79
54038;BME280;39954;48.844;9.726;2022-12-29T02:41:07;95595.38;;;6.73;98.37
54038;BME280;39954;48.844;9.726;2022-12-29T02:42:21;95594.53;;;6.72;97.87
54038;BME280;39954;48.844;9.726;2022-12-29T02:43:28;95585.19;;;6.70;98.43
54038;BME280;39954;48.844;9.726;2022-12-29T02:44:46;95584.13;;;6.74;97.38
54038;BME280;39954;48.844;9.726;2022-12-29T02:45:55;95584.38;;;6.69;98.36
54038;BME280;39954;48.844;9.726;2022-12-29T02:47:10;95590.34;;;6.70;98.32
54038;BME280;39954;48.844;9.726;2022-12-29T02:48:19;95589.75;;;6.65;99.17
54038;BME280;39954;48.844;9.726;2022-12-29T02:49:28;95588.00;;;6.65;98.75
54038;BME280;39954;48.844;9.726;2022-12-29T02:50:38;95585.19;;;6.70;97.81
54038;BME280;39954;48.844;9.726;2022-12-29T02:51:46;95594.00;;;6.66;98.67
54038;BME280;39954;48.844;9.726;2022-12-29T02:52:58;95583.50;;;6.69;98.51
54038;BME280;39954;48.844;9.726;2022-12-29T02:54:01;95582.81;;;6.65;99.74
54038;BME280;39954;48.844;9.726;2022-12-29T02:55:18;95583.91;;;6.79;97.07
54038;BME280;39954;48.844;9.726;2022-12-29T02:56:23;95585.03;;;6.73;99.58
54038;BME280;39954;48.844;9.726;2022-12-29T02:57:31;95591.56;;;6.80;97.96
54038;BME280;39954;48.844;9.726;2022-12-29T02:58:36;95592.31;;;6.82;97.74
54038;BME280;39954;48.844;9.726;2022-12-29T02:59:39;95587.91;;;6.84;97.26
54038;BME280;39954;48.844;9.726;2022-12-29T03:00:52;95584.97;;;6.92;95.96
54038;BME280;39954;48.844;9.726;2022-12-29T03:02:16;95588.28;;;6.94;96.22
54038;BME280;39954;48.844;9.726;2022-12-29T03:03:33;95592.16;;;7.03;94.82
54038;BME280;39954;48.844;9.726;2022-12-29T03:04:43;95587.69;;;7.06;93.89
54038;BME280;39954;48.844;9.726;2022-12-29T03:06:07;95584.34;;;7.04;95.20
54038;BME280;39954;48.844;9.726;2022-12-29T03:07:23;95582.34;;;7.09;94.20
54038;BME280;39954;48.844;9.726;2022-12-29T03:08:34;95572.53;;;7.16;92.97
54038;BME280;39954;48.844;9.726;2022-12-29T03:09:49;95582.53;;;7.22;92.01
54038;BME280;39954;48.844;9.726;2022-12-29T03:10:59;95582.38;;;7.25;91.63
54038;BME280;39954;48.844;9.726;2022-12-29T03:12:14;95574.78;;;7.22;92.78
54038;BME280;39954;48.844;9.726;2022-12-29T03:13:25;95575.72;;;7.21;91.85
54038;BME280;39954;48.844;9.726;2022-12-29T03:14:52;95575.41;;;7.27;91.56
54038;BME280;39954;48.844;9.726;2022-12-29T03:16:16;95575.94;;;7.34;90.64
54038;BME280;39954;48.844;9.726;2022-12-29T03:17:29;95569.59;;;7.39;89.91
54038;BME280;39954;48.844;9.726;2022-12-29T03:18:47;95567.41;;;7.48;89.21
54038;BME280;39954;48.844;9.726;2022-12-29T03:19:59;95570.59;;;7.53;88.17
54038;BME280;39954;48.844;9.726;2022-12-29T03:21:07;95564.69;;;7.51;89.07
54038;BME280;39954;48.844;9.726;2022-12-29T03:22:15;95559.66;;;7.48;89.41
54038;BME280;39954;48.844;9.726;2022-12-29T03:23:34;95566.78;;;7.60;88.11
54038;BME280;39954;48.844;9.726;2022-12-29T03:24:44;95568.28;;;7.64;87.54
54038;BME280;39954;48.844;9.726;2022-12-29T03:25:51;95569.03;;;7.66;87.74
54038;BME280;39954;48.844;9.726;2022-12-29T03:26:59;95567.66;;;7.76;86.22
54038;BME280;39954;48.844;9.726;2022-12-29T03:28:05;95545.50;;;7.87;84.82
54038;BME280;39954;48.844;9.726;2022-12-29T03:29:11;95556.28;;;7.95;84.57
54038;BME280;39954;48.844;9.726;2022-12-29T03:30:15;95555.28;;;7.97;84.39
54038;BME280;39954;48.844;9.726;2022-12-29T03:31:23;95557.09;;;7.95;84.02
54038;BME280;39954;48.844;9.726;2022-12-29T03:32:31;95546.75;;;7.95;84.50
54038;BME280;39954;48.844;9.726;2022-12-29T03:33:37;95557.03;;;7.97;84.67
54038;BME280;39954;48.844;9.726;2022-12-29T03:34:40;95558.53;;;8.01;83.99
54038;BME280;39954;48.844;9.726;2022-12-29T03:35:46;95555.94;;;8.17;82.02
54038;BME280;39954;48.844;9.726;2022-12-29T03:36:53;95548.41;;;8.28;80.95
54038;BME280;39954;48.844;9.726;2022-12-29T03:37:59;95548.81;;;8.20;82.02
54038;BME280;39954;48.844;9.726;2022-12-29T03:39:09;95548.69;;;8.23;81.53
54038;BME280;39954;48.844;9.726;2022-12-29T03:40:16;95546.22;;;8.20;81.57
54038;BME280;39954;48.844;9.726;2022-12-29T03:41:21;95558.28;;;8.21;81.65
54038;BME280;39954;48.844;9.726;2022-12-29T03:42:30;95557.28;;;8.24;81.41
54038;BME280;39954;48.844;9.726;2022-12-29T03:43:34;95552.28;;;8.21;81.95
54038;BME280;39954;48.844;9.726;2022-12-29T03:44:42;95548.09;;;8.18;82.58
54038;BME280;39954;48.844;9.726;2022-12-29T03:45:44;95553.28;;;8.18;81.43
54038;BME280;39954;48.844;9.726;2022-12-29T03:46:50;95553.16;;;8.20;81.68
54038;BME280;39954;48.844;9.726;2022-12-29T03:47:57;95560.09;;;8.19;81.09
54038;BME280;39954;48.844;9.726;2022-12-29T03:48:59;95550.22;;;8.26;80.19
54038;BME280;39954;48.844;9.726;2022-12-29T03:50:04;95557.09;;;8.27;80.49
54038;BME280;39954;48.844;9.726;2022-12-29T03:51:06;95550.59;;;8.20;81.99
54038;BME280;39954;48.844;9.726;2022-12-29T03:52:11;95546.22;;;8.20;81.71
54038;BME280;39954;48.844;9.726;2022-12-29T03:53:13;95543.75;;;8.19;81.82
54038;BME280;39954;48.844;9.726;2022-12-29T03:54:17;95543.09;;;8.15;82.63
54038;BME280;39954;48.844;9.726;2022-12-29T03:55:19;95529.97;;;8.18;81.84
54038;BME280;39954;48.844;9.726;2022-12-29T03:56:24;95543.81;;;8.17;82.45
54038;BME280;39954;48.844;9.726;2022-12-29T03:57:26;95551.59;;;8.17;82.25
54038;BME280;39954;48.844;9.726;2022-12-29T03:58:30;95551.59;;;8.17;82.59
54038;BME280;39954;48.844;9.726;2022-12-29T03:59:32;95557.63;;;8.18;82.45
54038;BME280;39954;48.844;9.726;2022-12-29T04:00:37;95550.50;;;8.21;81.59
54038;BME280;39954;48.844;9.726;2022-12-29T04:01:38;95558.75;;;8.28;81.02
54038;BME280;39954;48.844;9.726;2022-12-29T04:02:43;95549.41;;;8.25;81.95
54038;BME280;39954;48.844;9.726;2022-12-29T04:03:48;95553.75;;;8.25;81.79
54038;BME280;39954;48.844;9.726;2022-12-29T04:04:53;95554.94;;;8.19;82.23
54038;BME280;39954;48.844;9.726;2022-12-29T04:05:55;95543.31;;;8.26;80.81
54038;BME280;39954;48.844;9.726;2022-12-29T04:06:59;95542.78;;;8.36;79.53
54038;BME280;39954;48.844;9.726;2022-12-29T04:08:01;95542.03;;;8.34;80.26
54038;BME280;39954;48.844;9.726;2022-12-29T04:09:06;95550.56;;;8.36;79.63
54038;BME280;39954;48.844;9.726;2022-12-29T04:10:08;95546.91;;;8.40;79.46
54038;BME280;39954;48.844;9.726;2022-12-29T04:11:14;95539.81;;;8.43;78.86
54038;BME280;39954;48.844;9.726;2022-12-29T04:12:16;95536.69;;;8.37;80.10
54038;BME280;39954;48.844;9.726;2022-12-29T04:13:20;95539.13;;;8.40;79.04
54038;BME280;39954;48.844;9.726;2022-12-29T04:14:22;95548.16;;;8.33;80.58
54038;BME280;39954;48.844;9.726;2022-12-29T04:15:27;95538.69;;;8.32;80.20
54038;BME280;39954;48.844;9.726;2022-12-29T04:16:29;95540.56;;;8.29;79.95
54038;BME280;39954;48.844;9.726;2022-12-29T04:17:37;95545.16;;;8.24;81.03
54038;BME280;39954;48.844;9.726;2022-12-29T04:18:39;95550.50;;;8.21;80.80
54038;BME280;39954;48.844;9.726;2022-12-29T04:19:47;95556.28;;;8.11;82.45
54038;BME280;39954;48.844;9.726;2022-12-29T04:20:49;95544.16;;;8.11;82.05
54038;BME280;39954;48.844;9.726;2022-12-29T04:22:06;95555.63;;;8.07;83.07
54038;BME280;39954;48.844;9.726;2022-12-29T04:23:07;95555.94;;;8.01;83.60
54038;BME280;39954;48.844;9.726;2022-12-29T04:24:12;95551.63;;;8.01;82.83
54038;BME280;39954;48.844;9.726;2022-12-29T04:25:15;95554.09;;;8.03;82.87
54038;BME280;39954;48.844;9.726;2022-12-29T04:26:20;95559.28;;;8.03;81.97
54038;BME280;39954;48.844;9.726;2022-12-29T04:27:21;95556.34;;;8.09;81.45
54038;BME280;39954;48.844;9.726;2022-12-29T04:28:26;95559.22;;;8.04;81.96
54038;BME280;39954;48.844;9.726;2022-12-29T04:29:29;95560.97;;;8.04;81.53
54038;BME280;39954;48.844;9.726;2022-12-29T04:30:34;95555.22;;;7.99;82.51
54038;BME280;39954;48.844;9.726;2022-12-29T04:31:36;95552.78;;;7.96;82.42
54038;BME280;39954;48.844;9.726;2022-12-29T04:32:41;95548.63;;;7.93;82.29
54038;BME280;39954;48.844;9.726;2022-12-29T04:33:43;95561.72;;;7.90;82.73
54038;BME280;39954;48.844;9.726;2022-12-29T04:34:50;95554.59;;;7.78;84.54
54038;BME280;39954;48.844;9.726;2022-12-29T04:35:52;95552.13;;;7.76;85.23
54038;BME280;39954;48.844;9.726;2022-12-29T04:36:57;95563.97;;;7.80;84.33
54038;BME280;39954;48.844;9.726;2022-12-29T04:37:59;95566.47;;;7.98;83.67
54038;BME280;39954;48.844;9.726;2022-12-29T04:39:04;95564.56;;;8.01;83.06
54038;BME280;39954;48.844;9.726;2022-12-29T04:40:10;95563.97;;;7.96;84.34
54038;BME280;39954;48.844;9.726;2022-12-29T04:41:12;95565.72;;;7.96;84.10
54038;BME280;39954;48.844;9.726;2022-12-29T04:42:17;95560.63;;;7.94;84.18
54038;BME280;39954;48.844;9.726;2022-12-29T04:43:19;95564.22;;;7.92;85.18
54038;BME280;39954;48.844;9.726;2022-12-29T04:44:24;95566.63;;;7.95;85.29
54038;BME280;39954;48.844;9.726;2022-12-29T04:45:26;95557.88;;;8.13;83.61
54038;BME280;39954;48.844;9.726;2022-12-29T04:46:30;95569.81;;;8.16;83.40
54038;BME280;39954;48.844;9.726;2022-12-29T04:47:32;95571.22;;;8.21;82.51
54038;BME280;39954;48.844;9.726;2022-12-29T04:48:37;95568.69;;;8.20;83.58
54038;BME280;39954;48.844;9.726;2022-12-29T04:49:39;95568.69;;;8.20;83.47
54038;BME280;39954;48.844;9.726;2022-12-29T04:50:48;95570.28;;;8.22;83.22
54038;BME280;39954;48.844;9.726;2022-12-29T04:51:50;95559.94;;;8.22;83.33
54038;BME280;39954;48.844;9.726;2022-12-29T04:52:54;95554.41;;;8.28;82.79
54038;BME280;39954;48.844;9.726;2022-12-29T04:53:57;95565.94;;;8.23;83.86
54038;BME280;39954;48.844;9.726;2022-12-29T04:55:02;95564.94;;;8.25;83.03
54038;BME280;39954;48.844;9.726;2022-12-29T04:56:05;95565.09;;;8.22;84.13
54038;BME280;39954;48.844;9.726;2022-12-29T04:57:10;95561.75;;;8.20;84.45
54038;BME280;39954;48.844;9.726;2022-12-29T04:58:12;95565.09;;;8.22;84.01
54038;BME280;39954;48.844;9.726;2022-12-29T04:59:23;95568.09;;;8.30;82.51
54038;BME280;39954;48.844;9.726;2022-12-29T05:00:25;95554.22;;;8.32;83.06
54038;BME280;39954;48.844;9.726;2022-12-29T05:01:30;95550.34;;;8.24;83.59
54038;BME280;39954;48.844;9.726;2022-12-29T05:02:32;95549.09;;;8.16;84.80
54038;BME280;39954;48.844;9.726;2022-12-29T05:03:37;95556.09;;;8.14;84.65
54038;BME280;39954;48.844;9.726;2022-12-29T05:04:39;95557.28;;;8.08;85.33
54038;BME280;39954;48.844;9.726;2022-12-29T05:05:46;95551.28;;;8.07;85.27
54038;BME280;39954;48.844;9.726;2022-12-29T05:06:48;95562.28;;;8.11;84.77
54038;BME280;39954;48.844;9.726;2022-12-29T05:07:53;95550.28;;;8.10;84.94
54038;BME280;39954;48.844;9.726;2022-12-29T05:08:55;95549.19;;;7.98;86.84
54038;BME280;39954;48.844;9.726;2022-12-29T05:10:00;95552.63;;;7.99;86.08
54038;BME280;39954;48.844;9.726;2022-12-29T05:11:02;95557.78;;;7.99;86.34
54038;BME280;39954;48.844;9.726;2022-12-29T05:12:07;95553.09;;;7.90;87.49
54038;BME280;39954;48.844;9.726;2022-12-29T05:13:09;95557.63;;;7.86;87.96
54038;BME280;39954;48.844;9.726;2022-12-29T05:14:13;95563.13;;;7.80;88.49
54038;BME280;39954;48.844;9.726;2022-12-29T05:15:15;95552.94;;;7.77;89.37
54038;BME280;39954;48.844;9.726;2022-12-29T05:16:20;95550.59;;;7.72;90.16
54038;BME280;39954;48.844;9.726;2022-12-29T05:17:22;95557.69;;;7.69;91.03
54038;BME280;39954;48.844;9.726;2022-12-29T05:18:26;95555.59;;;7.75;89.83
54038;BME280;39954;48.844;9.726;2022-12-29T05:19:28;95560.88;;;7.74;90.30
54038;BME280;39954;48.844;9.726;2022-12-29T05:20:34;95558.97;;;7.77;90.20
54038;BME280;39954;48.844;9.726;2022-12-29T05:21:38;95547.84;;;7.75;90.32
54038;BME280;39954;48.844;9.726;2022-12-29T05:22:43;95547.78;;;7.77;90.32
54038;BME280;39954;48.844;9.726;2022-12-29T05:23:45;95550.19;;;7.80;89.90
54038;BME280;39954;48.844;9.726;2022-12-29T05:24:49;95561.63;;;7.76;90.82
54038;BME280;39954;48.844;9.726;2022-12-29T05:25:51;95557.97;;;7.80;89.71
54038;BME280;39954;48.844;9.726;2022-12-29T05:26:55;95564.13;;;7.77;90.84
54038;BME280;39954;48.844;9.726;2022-12-29T05:27:57;95560.22;;;7.70;91.55
54038;BME280;39954;48.844;9.726;2022-12-29T05:29:02;95560.88;;;7.74;90.88
54038;BME280;39954;48.844;9.726;2022-12-29T05:30:05;95560.34;;;7.67;92.10
54038;BME280;39954;48.844;9.726;2022-12-29T05:31:10;95551.53;;;7.71;90.71
54038;BME280;39954;48.844;9.726;2022-12-29T05:32:13;95555.19;;;7.67;91.91
54038;BME280;39954;48.844;9.726;2022-12-29T05:33:19;95568.28;;;7.64;92.26
54038;BME280;39954;48.844;9.726;2022-12-29T05:34:23;95567.78;;;7.57;93.00
54038;BME280;39954;48.844;9.726;2022-12-29T05:35:25;95563.44;;;7.58;92.56
54038;BME280;39954;48.844;9.726;2022-12-29T05:36:30;95564.28;;;7.58;92.12
54038;BME280;39954;48.844;9.726;2022-12-29T05:37:41;95562.13;;;7.51;93.32
54038;BME280;39954;48.844;9.726;2022-12-29T05:38:45;95565.59;;;7.50;93.52
54038;BME280;39954;48.844;9.726;2022-12-29T05:39:47;95553.59;;;7.49;92.82
54038;BME280;39954;48.844;9.726;2022-12-29T05:40:52;95555.41;;;7.47;92.87
54038;BME280;39954;48.844;9.726;2022-12-29T05:41:54;95551.19;;;7.46;91.83
54038;BME280;39954;48.844;9.726;2022-12-29T05:42:58;95551.41;;;7.41;92.63
54038;BME280;39954;48.844;9.726;2022-12-29T05:44:01;95546.00;;;7.46;91.73
54038;BME280;39954;48.844;9.726;2022-12-29T05:45:07;95551.78;;;7.51;90.76
54038;BME280;39954;48.844;9.726;2022-12-29T05:46:09;95551.06;;;7.47;90.53
54038;BME280;39954;48.844;9.726;2022-12-29T05:47:15;95549.91;;;7.53;89.91
54038;BME280;39954;48.844;9.726;2022-12-29T05:48:17;95539.91;;;7.47;90.37
54038;BME280;39954;48.844;9.726;2022-12-29T05:49:22;95549.41;;;7.46;90.21
54038;BME280;39954;48.844;9.726;2022-12-29T05:50:24;95541.56;;;7.48;89.29
54038;BME280;39954;48.844;9.726;2022-12-29T05:51:28;95530.22;;;7.50;88.86
54038;BME280;39954;48.844;9.726;2022-12-29T05:52:30;95522.25;;;7.55;87.85
54038;BME280;39954;48.844;9.726;2022-12-29T05:53:37;95535.81;;;7.58;87.16
54038;BME280;39954;48.844;9.726;2022-12-29T05:54:39;95530.06;;;7.53;88.19
54038;BME280;39954;48.844;9.726;2022-12-29T05:55:44;95543.94;;;7.68;86.40
54038;BME280;39954;48.844;9.726;2022-12-29T05:56:49;95534.00;;;7.60;87.48
54038;BME280;39954;48.844;9.726;2022-12-29T05:57:54;95547.75;;;7.61;86.90
54038;BME280;39954;48.844;9.726;2022-12-29T05:58:56;95547.34;;;7.53;87.74
54038;BME280;39954;48.844;9.726;2022-12-29T06:00:00;95551.06;;;7.47;88.53
54038;BME280;39954;48.844;9.726;2022-12-29T06:01:02;95558.84;;;7.47;88.43